createdAt,value
2023-04-06T03:44:18.558Z,5.97
2023-04-06T03:46:59.455Z,6.85
2023-04-06T03:52:53.673Z,6.60
2023-04-06T04:38:26.570Z,5.73
2023-04-06T04:44:33.625Z,6.00
2023-04-06T04:58:42.258Z,5.55
2023-04-06T05:01:11.722Z,6.15
2023-04-06T05:09:39.623Z,5.47
2023-04-06T05:36:38.985Z,5.75
2023-04-06T05:39:13.624Z,5.13
2023-04-06T05:41:50.502Z,5.10
2023-04-06T05:50:00.811Z,5.10
2023-04-06T05:52:42.269Z,5.30
2023-04-06T05:55:17.754Z,6.05
2023-04-06T05:58:06.326Z,5.97
2023-04-06T06:00:45.580Z,5.55
2023-04-06T06:03:25.288Z,5.13
2023-04-06T06:06:01.788Z,5.23
2023-04-06T06:08:37.696Z,4.95
2023-04-06T06:17:09.229Z,6.23
2023-04-06T06:20:09.760Z,4.95
2023-04-06T06:23:01.332Z,5.07
2023-04-06T06:25:49.436Z,5.50
2023-04-06T06:28:29.171Z,5.25
2023-04-06T06:31:16.488Z,5.82
2023-04-06T06:36:42.649Z,5.10
2023-04-06T06:39:18.491Z,5.20
2023-04-06T06:41:56.091Z,5.75
2023-04-06T06:44:41.531Z,4.95
2023-04-06T06:50:15.478Z,5.18
2023-04-06T06:52:57.622Z,4.32
2023-04-06T06:55:40.892Z,4.37
2023-04-06T07:10:00.878Z,5.60
2023-04-06T07:28:13.076Z,6.13
2023-04-06T07:30:49.951Z,6.25
2023-04-06T07:33:33.366Z,5.70
2023-04-06T07:36:10.197Z,5.95
2023-04-06T07:38:49.025Z,6.53
2023-04-06T07:42:02.543Z,6.40
2023-04-06T07:44:54.920Z,6.50
2023-04-06T07:52:56.195Z,6.95
2023-04-06T07:55:30.844Z,6.07
2023-04-06T07:58:07.945Z,7.10
2023-04-06T08:00:39.431Z,6.47
2023-04-06T08:03:13.900Z,8.00
2023-04-06T08:05:51.471Z,7.50
2023-04-06T08:08:19.596Z,7.18
2023-04-06T08:10:54.357Z,6.55
2023-04-06T08:13:21.674Z,7.63
2023-04-06T08:15:49.123Z,7.25
2023-04-06T08:18:18.988Z,6.97
2023-04-06T08:20:57.048Z,6.50
2023-04-06T08:23:24.547Z,6.78
2023-04-06T08:25:54.433Z,7.68
2023-04-06T08:28:29.729Z,8.80
2023-04-06T08:31:07.676Z,8.25
2023-04-06T08:33:41.803Z,8.70
2023-04-06T08:39:01.113Z,7.40
2023-04-06T08:41:29.575Z,8.27
2023-04-06T08:44:05.307Z,8.35
2023-04-06T08:46:38.864Z,7.47
2023-04-06T08:49:15.348Z,8.32
2023-04-06T08:51:51.512Z,8.87
2023-04-06T08:54:28.327Z,8.00
2023-04-06T08:57:03.853Z,8.35
2023-04-06T08:59:43.705Z,8.48
2023-04-06T09:02:18.429Z,8.27
2023-04-06T09:04:49.742Z,9.45
2023-04-06T09:07:26.651Z,9.30
2023-04-06T09:09:55.646Z,9.02
2023-04-06T09:12:44.307Z,8.95
2023-04-06T09:15:20.789Z,9.80
2023-04-06T09:17:50.188Z,9.45
2023-04-06T09:20:25.318Z,9.50
2023-04-06T09:23:16.532Z,9.32
2023-04-06T09:25:51.484Z,9.20
2023-04-06T09:28:24.818Z,9.00
2023-04-06T09:30:55.171Z,9.93
2023-04-06T09:33:34.335Z,10.60
2023-04-06T09:36:16.362Z,9.52
2023-04-06T09:38:55.712Z,8.43
2023-04-06T09:41:52.702Z,10.70
2023-04-06T09:44:38.271Z,11.25
2023-04-06T09:47:13.677Z,11.05
2023-04-06T09:49:52.409Z,10.70
2023-04-06T09:52:35.228Z,9.80
2023-04-06T09:55:25.131Z,10.25
2023-04-06T09:58:05.049Z,10.75
2023-04-06T10:03:32.405Z,10.95
2023-04-06T10:06:13.718Z,10.90
2023-04-06T10:08:45.103Z,10.00
2023-04-06T10:11:17.243Z,10.75
2023-04-06T10:13:45.463Z,10.27
2023-04-06T10:16:16.182Z,10.73
2023-04-06T10:18:48.330Z,10.77
2023-04-06T10:21:22.509Z,9.70
2023-04-06T10:23:53.899Z,11.35
2023-04-06T10:26:24.525Z,10.90
2023-04-06T10:29:06.415Z,10.88
2023-04-06T10:31:41.986Z,9.38
2023-04-06T10:34:22.398Z,10.23
2023-04-06T10:36:50.285Z,11.15
2023-04-06T10:39:45.055Z,10.35
2023-04-06T10:42:19.120Z,9.27
2023-04-06T10:50:33.953Z,10.77
2023-04-06T10:53:08.558Z,9.90
2023-04-06T10:55:36.192Z,9.65
2023-04-06T10:58:10.760Z,9.90
2023-04-06T11:00:51.251Z,10.82
2023-04-06T11:03:27.658Z,11.90
2023-04-06T11:06:08.931Z,12.33
2023-04-06T11:08:48.419Z,12.20
2023-04-06T11:11:22.737Z,12.35
2023-04-06T11:14:00.069Z,11.73
2023-04-06T11:19:19.219Z,10.02
2023-04-06T11:22:17.741Z,12.45
2023-04-06T11:27:49.231Z,11.82
2023-04-06T11:30:43.167Z,12.40
2023-04-06T11:33:27.583Z,12.60
2023-04-06T11:42:06.127Z,12.82
2023-04-06T11:44:47.375Z,12.18
2023-04-06T11:47:34.578Z,12.00
2023-04-06T11:50:27.717Z,11.15
2023-04-06T11:53:02.736Z,10.50
2023-04-06T12:05:15.578Z,11.35
2023-04-06T12:07:52.855Z,12.35
2023-04-06T12:17:27.275Z,10.43
2023-04-06T12:20:18.023Z,9.85
2023-04-06T12:23:01.809Z,11.07
2023-04-06T12:25:43.845Z,11.40
2023-04-06T12:28:28.206Z,11.30
2023-04-06T12:33:45.777Z,10.10
2023-04-06T12:36:14.482Z,12.10
2023-04-06T12:44:19.736Z,11.25
2023-04-06T12:46:54.636Z,11.80
2023-04-06T13:01:23.331Z,11.35
2023-04-06T13:06:42.885Z,11.10
2023-04-06T13:23:07.450Z,10.05
2023-04-06T13:29:27.610Z,9.85
2023-04-06T13:45:05.775Z,8.68
2023-04-06T13:47:42.483Z,8.85
2023-04-06T13:50:20.977Z,8.55
2023-04-06T14:10:41.722Z,8.20
2023-04-06T14:13:20.453Z,7.80
2023-04-06T14:15:58.941Z,7.88
2023-04-06T14:18:35.292Z,8.50
2023-04-06T14:21:11.049Z,7.80
2023-04-06T14:23:47.737Z,7.70
2023-04-06T14:26:23.943Z,6.82
2023-04-06T14:29:01.216Z,6.03
2023-04-06T14:31:37.109Z,6.57
2023-04-06T14:34:12.134Z,6.57
2023-04-06T14:36:48.083Z,6.65
2023-04-06T14:39:23.310Z,7.30
2023-04-06T14:41:57.723Z,7.80
2023-04-06T14:44:32.311Z,6.63
2023-04-06T14:47:08.085Z,7.07
2023-04-06T14:49:54.409Z,7.03
2023-04-06T14:52:33.655Z,5.97
2023-04-06T14:55:46.076Z,6.00
2023-04-06T14:58:36.552Z,5.93
2023-04-06T15:01:11.966Z,6.32
2023-04-06T15:03:51.765Z,6.30
2023-04-06T15:06:31.881Z,5.88
2023-04-06T15:09:07.313Z,6.10
2023-04-06T15:12:14.977Z,6.80
2023-04-06T15:14:54.899Z,6.10
2023-04-06T15:17:49.676Z,6.73
2023-04-06T15:23:31.040Z,7.37
2023-04-06T15:26:06.259Z,6.00
2023-04-06T15:28:42.111Z,6.45
2023-04-06T15:31:36.697Z,6.20
2023-04-06T15:34:13.332Z,7.43
2023-04-06T15:36:48.165Z,7.00
2023-04-06T15:39:24.088Z,6.43
2023-04-06T15:41:59.185Z,6.70
2023-04-06T15:44:38.238Z,6.47
2023-04-06T15:47:13.264Z,6.53
2023-04-06T15:49:49.280Z,6.10
2023-04-06T15:52:26.322Z,5.30
2023-04-06T15:55:02.301Z,5.17
2023-04-06T15:57:37.166Z,5.05
2023-04-06T16:00:15.467Z,5.75
2023-04-06T16:02:50.440Z,5.60
2023-04-06T16:05:29.989Z,5.10
2023-04-06T16:11:11.445Z,5.22
2023-04-06T16:13:54.660Z,5.45
2023-04-06T16:16:31.461Z,5.50
2023-04-06T16:19:07.252Z,5.43
2023-04-06T16:21:42.276Z,5.07
2023-04-06T16:24:18.004Z,5.38
2023-04-06T16:26:45.505Z,5.47
2023-04-06T16:29:20.985Z,5.43
2023-04-06T16:31:48.384Z,4.63
2023-04-06T16:34:16.035Z,6.72
2023-04-06T16:36:43.748Z,4.90
2023-04-06T16:39:17.505Z,4.65
2023-04-06T16:41:44.790Z,5.00
2023-04-06T16:44:13.219Z,4.78
2023-04-06T16:46:41.591Z,4.70
2023-04-06T16:49:08.832Z,4.95
2023-04-06T16:51:37.225Z,4.47
2023-04-06T16:54:04.725Z,4.78
2023-04-06T16:56:32.555Z,4.57
2023-04-06T16:59:07.174Z,4.53
2023-04-06T17:01:41.375Z,4.68
2023-04-06T17:04:08.618Z,5.38
2023-04-06T17:06:35.984Z,4.43
2023-04-06T17:09:14.109Z,4.70
2023-04-06T17:11:46.884Z,4.07
2023-04-06T17:14:14.016Z,3.70
2023-04-06T17:16:47.241Z,4.40
2023-04-06T17:19:15.052Z,4.93
2023-04-06T17:21:42.461Z,4.50
2023-04-06T17:24:18.015Z,4.15
2023-04-06T17:26:48.899Z,3.92
2023-04-06T17:29:16.334Z,3.67
2023-04-06T17:31:46.180Z,4.28
2023-04-06T17:34:13.420Z,4.60
2023-04-06T17:36:40.995Z,4.05
2023-04-06T17:39:12.266Z,4.03
2023-04-06T17:41:39.997Z,3.58
2023-04-06T17:44:10.026Z,4.00
2023-04-06T17:46:45.359Z,4.15
2023-04-06T17:49:19.155Z,3.72
2023-04-06T17:51:46.266Z,3.45
2023-04-06T17:54:20.095Z,4.22
2023-04-06T17:56:49.409Z,4.20
2023-04-06T17:59:18.091Z,3.42
2023-04-06T18:01:52.251Z,4.13
2023-04-06T18:04:19.334Z,4.43
2023-04-06T18:06:47.079Z,4.22
2023-04-06T18:09:14.897Z,4.20
2023-04-06T18:11:42.502Z,3.70
2023-04-06T18:14:11.166Z,3.88
2023-04-06T18:16:48.993Z,3.90
2023-04-06T18:19:16.306Z,4.40
2023-04-06T18:21:43.671Z,3.97
2023-04-06T18:24:18.784Z,4.78
2023-04-06T18:26:52.358Z,4.30
2023-04-06T18:29:28.193Z,4.10
2023-04-06T18:31:55.359Z,4.72
2023-04-06T18:34:23.043Z,4.18
2023-04-06T18:36:51.143Z,4.13
2023-04-06T18:39:18.490Z,4.13
2023-04-06T18:41:46.605Z,5.63
2023-04-06T18:44:13.640Z,4.97
2023-04-06T18:46:55.407Z,5.60
2023-04-06T18:49:22.701Z,5.00
2023-04-06T18:51:54.170Z,4.80
2023-04-06T18:54:21.382Z,5.53
2023-04-06T18:56:48.781Z,5.82
2023-04-06T18:59:20.100Z,5.88
2023-04-06T19:01:51.306Z,5.00
2023-04-06T19:04:29.606Z,5.85
2023-04-06T19:06:56.953Z,5.43
2023-04-06T19:09:27.421Z,5.97
2023-04-06T19:11:57.747Z,7.10
2023-04-06T19:14:25.045Z,5.72
2023-04-06T19:16:59.643Z,6.22
2023-04-06T19:19:26.924Z,6.72
2023-04-06T19:22:02.219Z,5.82
2023-04-06T19:24:38.286Z,6.18
2023-04-06T19:27:05.118Z,6.22
2023-04-06T19:29:39.125Z,6.40
2023-04-06T19:34:35.912Z,6.15
2023-04-06T19:37:12.226Z,5.50
2023-04-06T19:39:48.294Z,5.23
2023-04-06T19:42:26.090Z,6.30
2023-04-06T19:45:01.219Z,4.97
2023-04-06T19:47:28.596Z,5.35
